RESULTATS »

INSCRITS PRESENTATS ACABEN RETIRATS DESQUALIFICATS DIST. TRAM 1 DIST. TRAM 2 DIST. TRAM 3 TEMP. EXT TEMP. AIGUA
0 0 0 0 750 20 5 0 0

CLASSIFICACIÓ

MASCULÍ FEMENÍ CATEGORIES CLUBS (MASCULINA) CLUBS (FEMENINA) INDIVIDUALS GRUPS D'EDAT

LLOCDORSALNOMCLUBCAT.T.META| P.Tram 1 || P.Tram 2 |Km/hTEMPS| P.Tram 3 |PARC_1PARC_2
1 6014EVA LEDESMA CALVETBIG DUTCHMANABF01:06:042700:10:015800:37:2632.0600:47:273600:18:370:00:000:00:00
2 107ANABEL GRACIA GARASAC.D. FASTTRIATLONABF01:08:363900:10:227600:38:2531.2400:48:476500:19:490:00:000:00:00
3 12MAR CELMA MARINC.N. PRAT-TRIATLOABF01:13:584500:10:4610200:40:1929.7600:51:0515900:22:530:00:000:00:00
4 1869ANGELES RODRIGUEZ RODRIGUCLUB TRIATLO BLANESABF01:14:469300:11:4311900:41:1829.0600:53:0112500:21:450:00:000:00:00
5 3558TERESA PONS MUNILLC.E.T. DISTANCEABF01:15:2513300:12:599700:40:0229.9800:53:0114800:22:240:00:000:00:00
6 3503GLÒRIA ESPINAR MAQUEDACLUB WATERPOLO FIGUERESABF01:19:003100:10:0917800:45:4026.2800:55:4916600:23:110:00:000:00:00
7 34JUDITH ANDUJAR PIÑOLC. TRI. GRANOLLERSABF01:19:1513500:13:1516200:44:2926.9800:57:4411700:21:310:00:000:00:00
8 4045IRENE RODRIGUEZ GUELLCLUB TRIATLO BLANESABF01:19:2117600:14:1214800:43:0927.8100:57:2113500:22:000:00:000:00:00
9 1837LAURA MAQUEDA MARCOSC.N. PRAT-TRIATLOABF01:19:524000:10:2417200:45:1126.5600:55:3518900:24:170:00:000:00:00
10 3501MIRIAM CODINA CASTILLOC. TRI. GRANOLLERSABF01:20:4115100:13:3416000:44:2327.0400:57:5715600:22:440:00:000:00:00
11 123CATARINA SOUSACLUB TRIATLO SABADELLABF01:21:075400:11:0017100:45:1026.5700:56:1020500:24:570:00:000:00:00
12 3588ESTHER VIDAL PAJARESC.A. RIBAGORÇANAABF01:22:1420600:15:1913300:41:5828.5900:57:1720600:24:570:00:000:00:00
13 3578LAIA ALSINA VIUCLUB TRIATLO BLANESJNF01:24:0715400:13:3618800:46:3025.8101:00:0617900:24:010:00:000:00:00
14 4046JUDIT BALTRONS OLIVERASCLUB TRIATLO BLANESABF01:24:3217700:14:1318700:46:2825.8201:00:4117600:23:510:00:000:00:00
15 5010ANAIS COBO AYUELALLICENCIA DE DIAABF01:25:566100:11:0721100:49:2924.2501:00:3621200:25:200:00:000:00:00
16 3525GEMMA FARRE VILAINDEPENDENTABF01:26:1519700:15:0219800:48:0124.9901:03:0316700:23:120:00:000:00:00
17 1829HELIA ROCHA IÑIGOC.N. MATAROSUB23F01:26:4814700:13:2920600:48:5524.5301:02:2419300:24:240:00:000:00:00
18 1831LAIA SALVADOR LLADOC.N. MATAROV1F01:27:2216600:14:0120100:48:3124.7301:02:3220200:24:500:00:000:00:00
19 1844SANDRA SUBIRANA PARERACLUB TRIATLO L´EIX DE NAVABF01:28:2720900:15:2420800:49:0024.4901:04:2418000:24:030:00:000:00:00
20 4085EULALIA MASRIERA ARNAUCLUB TRIATLO SABADELLABF01:28:3120500:15:1821500:51:1523.4101:06:3313100:21:580:00:000:00:00
21 31MONTSE CUEVAS CASTILLOC. TRI. GRANOLLERSV2F01:28:3316200:13:5121200:49:4424.1301:03:3520700:24:580:00:000:00:00
22 110SÍLVIA GUZMÁN GARCÍASPINNINGDELBUENO.COMABF01:30:5320100:15:1321700:51:1923.3801:06:3219100:24:210:00:000:00:00
23 1930YOLANDA LOPEZ BERDUMC. TRI. GRANOLLERSABF01:30:5922800:16:5619900:48:0724.9401:05:0322000:25:560:00:000:00:00
24 1830MONICA RODRIGO CARRERASC.N. MATAROABF01:31:2214900:13:3019600:47:5425.0501:01:2423300:29:580:00:000:00:00
25 5018GEMMA SAURET VIDALLLICENCIA DE DIAABF01:31:2818200:14:1622100:52:5922.6501:07:1518500:24:130:00:000:00:00
26 1851MARTA SANCHEZ SALINASCLUB TRIATLO L´EIX DE NAVV1F01:32:4419800:15:0921800:52:1023.0001:07:1921300:25:250:00:000:00:00
27 4083LAURA HOMS GARCIAC.N. MATAROABF01:34:1321700:15:5921300:50:3723.7101:06:3622600:27:370:00:000:00:00
28 1841TÀNIA RUIZ CASTROGAVA TRIATLOABF01:36:0122700:16:4922300:53:4122.3501:10:3021500:25:310:00:000:00:00
29 6006MARTA FORN OSSORIOLLICENCIA DE DIAV2F01:36:2920200:15:1422200:53:3722.3801:08:5122700:27:380:00:000:00:00
30 4095VALERIA DUBINCLUB TRITRAININGABF01:43:5723300:18:0122900:55:5821.4401:13:5923400:29:580:00:000:00:00
31 5020MARTA FONT BELMONTELLICENCIA DE DIASUB23F01:48:1123000:17:2823501:02:3319.1801:20:0122900:28:100:00:000:00:00






FEDERACIÓ CATALANA DE TRIATLÓ
SEU CENTRAL I CORRESPONDÈNCIA: Rambla Guipúscoa 23-25 2on-D · 08018 Barcelona · Tel / Fax : 93 307 93 35
ATENCIÓ AL PÚBLIC: Passeig Joan de Borbó, 93 (Club Natació Barcelona) · 08039 Barcelona · Tel / Fax : 93 307 93 32